首页
METAR-TAF:

METAR-TAF

机场 :

Dalhart Municipal Airport

Dalhart, 得克萨斯州, 美国

纬度: 36-01-24N, 经度: 102-32-50W, 海拔: 1216米

当前天气观测

该预报发布于7分钟前的12:53 UTC
静风
温度 24°C
湿度 54%
气压 1015 hPa
能見度: 14.5公里
天空无云

METAR: KDHT 251253Z AUTO 00000KT 9SM CLR 24/14 A2998 RMK AO2 SLP079 T02440144

时间: 08:00 (13:00 UTC)

预报

该预报发布于1小时和33分钟前的11:27 UTC
预报有效从25日的 12点(UTC)到 26日的 12点(UTC)
风速7节,风向西南
能見度: 10公里
少量云层高于25000英尺
从 25日的 1700点(UTC)
风速7节,风向北转东北
能見度: 10公里
少量云层高于20000英尺
从 25日的 2200点(UTC)
风速8节,风向东转东南
能見度: 10公里
散云层高于15000英尺
从 26日的 0500点(UTC)
风速6节,风向多变
能見度: 10公里
散云层高于20000英尺

TAF: KDHT 251127Z 2512/2612 23007KT P6SM FEW250 FM251700 03007KT P6SM FEW200 FM252200 12008KT P6SM SCT150 FM260500 VRB06KT P6SM SCT200

超过4000个机场的气象观测和天气预报(METAR&TAF报告)。

可查询的气象台以黄色和红色小点在地图上表示。

将鼠标移到小点上方,可查看气象台名称。

然后点击查看天气观测和预报。

如需切换地图:点击带黑十字的绿色按钮放大地图;点击带横线的绿色按钮缩小地图;或者点击绿色箭头查看邻近地区的地图。


METAR-TAF: